sensor_id;sensor_type;location;lat;lon;timestamp;temperature;humidity
54168;DHT22;68429;50.958;3.592;2023-06-22T00:00:57;18.10;99.90
54168;DHT22;68429;50.958;3.592;2023-06-22T00:03:24;18.00;99.90
54168;DHT22;68429;50.958;3.592;2023-06-22T00:05:51;18.00;99.90
54168;DHT22;68429;50.958;3.592;2023-06-22T00:08:17;17.90;99.90
54168;DHT22;68429;50.958;3.592;2023-06-22T00:10:43;17.70;99.90
54168;DHT22;68429;50.958;3.592;2023-06-22T00:13:10;17.90;99.90
54168;DHT22;68429;50.958;3.592;2023-06-22T00:15:37;18.00;99.90
54168;DHT22;68429;50.958;3.592;2023-06-22T00:18:04;18.00;99.90
54168;DHT22;68429;50.958;3.592;2023-06-22T00:20:30;17.90;99.90
54168;DHT22;68429;50.958;3.592;2023-06-22T00:22:57;18.00;99.90
54168;DHT22;68429;50.958;3.592;2023-06-22T00:25:23;17.90;99.90
54168;DHT22;68429;50.958;3.592;2023-06-22T00:27:49;17.90;99.90
54168;DHT22;68429;50.958;3.592;2023-06-22T00:30:18;17.80;99.90
54168;DHT22;68429;50.958;3.592;2023-06-22T00:32:45;17.80;99.90
54168;DHT22;68429;50.958;3.592;2023-06-22T00:35:14;17.80;99.90
54168;DHT22;68429;50.958;3.592;2023-06-22T00:37:40;17.80;99.90
54168;DHT22;68429;50.958;3.592;2023-06-22T00:40:10;17.60;99.90
54168;DHT22;68429;50.958;3.592;2023-06-22T00:42:40;17.40;99.90
54168;DHT22;68429;50.958;3.592;2023-06-22T00:45:07;17.60;99.90
54168;DHT22;68429;50.958;3.592;2023-06-22T00:47:36;17.80;99.90
54168;DHT22;68429;50.958;3.592;2023-06-22T00:50:02;17.70;99.90
54168;DHT22;68429;50.958;3.592;2023-06-22T00:52:29;17.70;99.90
54168;DHT22;68429;50.958;3.592;2023-06-22T00:54:56;17.70;99.90
54168;DHT22;68429;50.958;3.592;2023-06-22T00:57:24;17.70;99.90
54168;DHT22;68429;50.958;3.592;2023-06-22T00:59:53;17.50;99.90
54168;DHT22;68429;50.958;3.592;2023-06-22T01:02:19;17.50;99.90
54168;DHT22;68429;50.958;3.592;2023-06-22T01:04:45;17.40;99.90
54168;DHT22;68429;50.958;3.592;2023-06-22T01:07:30;17.50;99.90
54168;DHT22;68429;50.958;3.592;2023-06-22T01:10:08;17.60;99.90
54168;DHT22;68429;50.958;3.592;2023-06-22T01:12:42;17.60;99.90
54168;DHT22;68429;50.958;3.592;2023-06-22T01:15:18;17.30;99.90
54168;DHT22;68429;50.958;3.592;2023-06-22T01:17:47;17.10;99.90
54168;DHT22;68429;50.958;3.592;2023-06-22T01:20:15;16.90;99.90
54168;DHT22;68429;50.958;3.592;2023-06-22T01:25:31;16.90;99.90
54168;DHT22;68429;50.958;3.592;2023-06-22T01:28:03;16.90;99.90
54168;DHT22;68429;50.958;3.592;2023-06-22T01:30:31;16.90;99.90
54168;DHT22;68429;50.958;3.592;2023-06-22T01:33:00;16.90;99.90
54168;DHT22;68429;50.958;3.592;2023-06-22T01:35:28;17.00;99.90
54168;DHT22;68429;50.958;3.592;2023-06-22T01:37:55;16.80;99.90
54168;DHT22;68429;50.958;3.592;2023-06-22T01:40:21;16.60;99.90
54168;DHT22;68429;50.958;3.592;2023-06-22T01:42:48;16.50;99.90
54168;DHT22;68429;50.958;3.592;2023-06-22T01:45:14;16.40;99.90
54168;DHT22;68429;50.958;3.592;2023-06-22T01:47:41;16.50;99.90
54168;DHT22;68429;50.958;3.592;2023-06-22T01:50:07;16.60;99.90
54168;DHT22;68429;50.958;3.592;2023-06-22T01:52:33;16.70;99.90
54168;DHT22;68429;50.958;3.592;2023-06-22T01:55:00;16.70;99.90
54168;DHT22;68429;50.958;3.592;2023-06-22T01:57:26;16.50;99.90
54168;DHT22;68429;50.958;3.592;2023-06-22T02:00:07;16.40;99.90
54168;DHT22;68429;50.958;3.592;2023-06-22T02:02:48;16.40;99.90
54168;DHT22;68429;50.958;3.592;2023-06-22T02:05:18;16.40;99.90
54168;DHT22;68429;50.958;3.592;2023-06-22T02:07:52;16.30;99.90
54168;DHT22;68429;50.958;3.592;2023-06-22T02:10:22;16.40;99.90
54168;DHT22;68429;50.958;3.592;2023-06-22T02:12:49;16.40;99.90
54168;DHT22;68429;50.958;3.592;2023-06-22T02:15:16;16.40;99.90
54168;DHT22;68429;50.958;3.592;2023-06-22T02:17:42;16.40;99.90
54168;DHT22;68429;50.958;3.592;2023-06-22T02:20:14;16.40;99.90
54168;DHT22;68429;50.958;3.592;2023-06-22T02:22:40;16.40;99.90
54168;DHT22;68429;50.958;3.592;2023-06-22T02:25:06;16.30;99.90
54168;DHT22;68429;50.958;3.592;2023-06-22T02:27:32;16.30;99.90
54168;DHT22;68429;50.958;3.592;2023-06-22T02:29:58;16.20;99.90
54168;DHT22;68429;50.958;3.592;2023-06-22T02:32:23;16.20;99.90
54168;DHT22;68429;50.958;3.592;2023-06-22T02:34:49;16.30;99.90
54168;DHT22;68429;50.958;3.592;2023-06-22T02:37:15;16.30;99.90
54168;DHT22;68429;50.958;3.592;2023-06-22T02:39:41;16.40;99.90
54168;DHT22;68429;50.958;3.592;2023-06-22T02:42:07;16.40;99.90
54168;DHT22;68429;50.958;3.592;2023-06-22T02:44:32;16.40;99.90
54168;DHT22;68429;50.958;3.592;2023-06-22T02:46:58;16.20;99.90
54168;DHT22;68429;50.958;3.592;2023-06-22T02:49:24;16.20;99.90
54168;DHT22;68429;50.958;3.592;2023-06-22T02:51:50;16.20;99.90
54168;DHT22;68429;50.958;3.592;2023-06-22T02:54:16;16.20;99.90
54168;DHT22;68429;50.958;3.592;2023-06-22T02:56:42;16.30;99.90
54168;DHT22;68429;50.958;3.592;2023-06-22T02:59:10;16.30;99.90
54168;DHT22;68429;50.958;3.592;2023-06-22T03:01:36;16.30;99.90
54168;DHT22;68429;50.958;3.592;2023-06-22T03:04:09;16.40;99.90
54168;DHT22;68429;50.958;3.592;2023-06-22T03:06:35;16.40;99.90
54168;DHT22;68429;50.958;3.592;2023-06-22T03:09:03;16.40;99.90
54168;DHT22;68429;50.958;3.592;2023-06-22T03:11:33;16.40;99.90
54168;DHT22;68429;50.958;3.592;2023-06-22T03:14:00;16.50;99.90
54168;DHT22;68429;50.958;3.592;2023-06-22T03:16:26;16.40;99.90
54168;DHT22;68429;50.958;3.592;2023-06-22T03:18:52;16.50;99.90
54168;DHT22;68429;50.958;3.592;2023-06-22T03:21:23;16.50;99.90
54168;DHT22;68429;50.958;3.592;2023-06-22T03:23:49;16.50;99.90
54168;DHT22;68429;50.958;3.592;2023-06-22T03:26:17;16.40;99.90
54168;DHT22;68429;50.958;3.592;2023-06-22T03:28:43;16.40;99.90
54168;DHT22;68429;50.958;3.592;2023-06-22T03:31:08;16.40;99.90
54168;DHT22;68429;50.958;3.592;2023-06-22T03:33:34;16.50;99.90
54168;DHT22;68429;50.958;3.592;2023-06-22T03:36:00;16.50;99.90
54168;DHT22;68429;50.958;3.592;2023-06-22T03:38:26;16.40;99.90
54168;DHT22;68429;50.958;3.592;2023-06-22T03:40:51;16.30;99.90
54168;DHT22;68429;50.958;3.592;2023-06-22T03:43:17;16.30;99.90
54168;DHT22;68429;50.958;3.592;2023-06-22T03:45:42;16.30;99.90
54168;DHT22;68429;50.958;3.592;2023-06-22T03:48:11;16.20;99.90
54168;DHT22;68429;50.958;3.592;2023-06-22T03:50:36;16.30;99.90
54168;DHT22;68429;50.958;3.592;2023-06-22T03:53:02;16.40;99.90
54168;DHT22;68429;50.958;3.592;2023-06-22T03:55:28;16.40;99.90
54168;DHT22;68429;50.958;3.592;2023-06-22T03:57:53;16.40;99.90
54168;DHT22;68429;50.958;3.592;2023-06-22T04:00:22;16.30;99.90
54168;DHT22;68429;50.958;3.592;2023-06-22T04:02:48;16.40;99.90
54168;DHT22;68429;50.958;3.592;2023-06-22T04:05:14;16.40;99.90
54168;DHT22;68429;50.958;3.592;2023-06-22T04:07:39;16.50;99.90
54168;DHT22;68429;50.958;3.592;2023-06-22T04:10:05;16.60;99.90
54168;DHT22;68429;50.958;3.592;2023-06-22T04:12:31;16.60;99.90
54168;DHT22;68429;50.958;3.592;2023-06-22T04:14:56;16.60;99.90
54168;DHT22;68429;50.958;3.592;2023-06-22T04:17:22;16.60;99.90
54168;DHT22;68429;50.958;3.592;2023-06-22T04:19:50;16.70;99.90
54168;DHT22;68429;50.958;3.592;2023-06-22T04:22:16;16.80;99.90
54168;DHT22;68429;50.958;3.592;2023-06-22T04:24:42;16.60;99.90
54168;DHT22;68429;50.958;3.592;2023-06-22T04:27:07;16.70;99.90
54168;DHT22;68429;50.958;3.592;2023-06-22T04:29:33;16.90;99.90
54168;DHT22;68429;50.958;3.592;2023-06-22T04:31:59;17.00;99.90
54168;DHT22;68429;50.958;3.592;2023-06-22T04:34:28;17.30;99.90
54168;DHT22;68429;50.958;3.592;2023-06-22T04:36:55;17.20;99.90
54168;DHT22;68429;50.958;3.592;2023-06-22T04:39:21;17.30;99.90
54168;DHT22;68429;50.958;3.592;2023-06-22T04:41:46;17.50;99.90
54168;DHT22;68429;50.958;3.592;2023-06-22T04:44:14;17.50;99.90
54168;DHT22;68429;50.958;3.592;2023-06-22T04:46:57;17.50;99.90
54168;DHT22;68429;50.958;3.592;2023-06-22T04:49:26;17.70;99.90
54168;DHT22;68429;50.958;3.592;2023-06-22T04:52:02;18.00;99.90
54168;DHT22;68429;50.958;3.592;2023-06-22T04:54:28;17.90;99.90
54168;DHT22;68429;50.958;3.592;2023-06-22T04:56:54;18.10;99.90
54168;DHT22;68429;50.958;3.592;2023-06-22T04:59:29;18.40;99.90
54168;DHT22;68429;50.958;3.592;2023-06-22T05:02:00;18.70;99.90
54168;DHT22;68429;50.958;3.592;2023-06-22T05:04:27;19.00;99.90
54168;DHT22;68429;50.958;3.592;2023-06-22T05:06:54;19.10;99.90
54168;DHT22;68429;50.958;3.592;2023-06-22T05:09:20;19.30;99.90
54168;DHT22;68429;50.958;3.592;2023-06-22T05:11:47;19.40;99.90
54168;DHT22;68429;50.958;3.592;2023-06-22T05:14:12;19.40;99.90
54168;DHT22;68429;50.958;3.592;2023-06-22T05:16:38;19.40;99.90
54168;DHT22;68429;50.958;3.592;2023-06-22T05:19:04;19.60;99.90
54168;DHT22;68429;50.958;3.592;2023-06-22T05:21:31;19.70;99.90
54168;DHT22;68429;50.958;3.592;2023-06-22T05:23:57;19.60;99.90
54168;DHT22;68429;50.958;3.592;2023-06-22T05:26:26;19.80;99.90
54168;DHT22;68429;50.958;3.592;2023-06-22T05:28:52;19.90;99.90
54168;DHT22;68429;50.958;3.592;2023-06-22T05:31:19;20.10;99.90
54168;DHT22;68429;50.958;3.592;2023-06-22T05:33:48;20.20;99.90
54168;DHT22;68429;50.958;3.592;2023-06-22T05:36:14;20.20;99.90
54168;DHT22;68429;50.958;3.592;2023-06-22T05:38:41;20.40;99.90
54168;DHT22;68429;50.958;3.592;2023-06-22T05:41:07;20.40;99.90
54168;DHT22;68429;50.958;3.592;2023-06-22T05:43:34;20.10;99.90
54168;DHT22;68429;50.958;3.592;2023-06-22T05:46:04;20.10;99.90
54168;DHT22;68429;50.958;3.592;2023-06-22T05:48:30;20.20;99.90
54168;DHT22;68429;50.958;3.592;2023-06-22T05:50:55;20.30;99.90
54168;DHT22;68429;50.958;3.592;2023-06-22T05:53:21;20.40;99.90
54168;DHT22;68429;50.958;3.592;2023-06-22T05:55:47;20.40;99.90
54168;DHT22;68429;50.958;3.592;2023-06-22T05:58:13;20.30;99.90
54168;DHT22;68429;50.958;3.592;2023-06-22T06:00:39;20.00;99.90
54168;DHT22;68429;50.958;3.592;2023-06-22T06:03:07;19.60;99.90
54168;DHT22;68429;50.958;3.592;2023-06-22T06:05:33;19.50;99.90
54168;DHT22;68429;50.958;3.592;2023-06-22T06:08:00;19.70;99.90
54168;DHT22;68429;50.958;3.592;2023-06-22T06:10:26;19.90;99.90
54168;DHT22;68429;50.958;3.592;2023-06-22T06:12:55;20.10;99.90
54168;DHT22;68429;50.958;3.592;2023-06-22T06:15:20;20.40;99.90
54168;DHT22;68429;50.958;3.592;2023-06-22T06:17:53;20.20;99.90
54168;DHT22;68429;50.958;3.592;2023-06-22T06:20:21;20.30;99.90
54168;DHT22;68429;50.958;3.592;2023-06-22T06:22:47;20.50;99.90
54168;DHT22;68429;50.958;3.592;2023-06-22T06:25:13;20.80;99.90
54168;DHT22;68429;50.958;3.592;2023-06-22T06:27:48;20.80;99.90
54168;DHT22;68429;50.958;3.592;2023-06-22T06:30:15;20.90;99.90
54168;DHT22;68429;50.958;3.592;2023-06-22T06:32:42;21.00;99.90
54168;DHT22;68429;50.958;3.592;2023-06-22T06:35:09;21.10;99.90
54168;DHT22;68429;50.958;3.592;2023-06-22T06:37:36;20.90;99.90
54168;DHT22;68429;50.958;3.592;2023-06-22T06:40:06;21.10;99.90
54168;DHT22;68429;50.958;3.592;2023-06-22T06:42:39;21.30;99.90
54168;DHT22;68429;50.958;3.592;2023-06-22T06:45:07;21.00;99.90
54168;DHT22;68429;50.958;3.592;2023-06-22T06:47:33;21.10;99.90
54168;DHT22;68429;50.958;3.592;2023-06-22T06:49:59;21.30;99.90
54168;DHT22;68429;50.958;3.592;2023-06-22T06:52:25;21.20;99.90
54168;DHT22;68429;50.958;3.592;2023-06-22T06:54:52;21.30;99.90
54168;DHT22;68429;50.958;3.592;2023-06-22T06:57:18;21.50;99.90
54168;DHT22;68429;50.958;3.592;2023-06-22T06:59:44;21.80;99.90
54168;DHT22;68429;50.958;3.592;2023-06-22T07:02:09;21.90;99.90
54168;DHT22;68429;50.958;3.592;2023-06-22T07:04:35;21.90;99.90
54168;DHT22;68429;50.958;3.592;2023-06-22T07:07:02;22.20;99.90
54168;DHT22;68429;50.958;3.592;2023-06-22T07:09:28;22.50;99.90
54168;DHT22;68429;50.958;3.592;2023-06-22T07:11:54;22.90;99.90
54168;DHT22;68429;50.958;3.592;2023-06-22T07:14:19;23.10;99.90
54168;DHT22;68429;50.958;3.592;2023-06-22T07:16:45;22.90;99.90
54168;DHT22;68429;50.958;3.592;2023-06-22T07:19:14;23.00;99.90
54168;DHT22;68429;50.958;3.592;2023-06-22T07:21:39;23.20;99.90
54168;DHT22;68429;50.958;3.592;2023-06-22T07:24:06;23.10;99.90
54168;DHT22;68429;50.958;3.592;2023-06-22T07:26:32;23.20;99.90
54168;DHT22;68429;50.958;3.592;2023-06-22T07:28:58;22.90;99.90
54168;DHT22;68429;50.958;3.592;2023-06-22T07:31:24;23.20;99.90
54168;DHT22;68429;50.958;3.592;2023-06-22T07:33:50;23.00;99.90
54168;DHT22;68429;50.958;3.592;2023-06-22T07:36:17;22.80;99.90
54168;DHT22;68429;50.958;3.592;2023-06-22T07:38:42;23.00;99.90
54168;DHT22;68429;50.958;3.592;2023-06-22T07:41:08;23.10;99.90
54168;DHT22;68429;50.958;3.592;2023-06-22T07:43:34;23.10;99.90
54168;DHT22;68429;50.958;3.592;2023-06-22T07:46:03;23.00;99.90
54168;DHT22;68429;50.958;3.592;2023-06-22T07:48:29;23.00;99.90
54168;DHT22;68429;50.958;3.592;2023-06-22T07:50:55;23.30;99.90
54168;DHT22;68429;50.958;3.592;2023-06-22T07:53:21;23.40;99.90
54168;DHT22;68429;50.958;3.592;2023-06-22T07:55:47;23.30;99.90
54168;DHT22;68429;50.958;3.592;2023-06-22T07:58:13;23.40;99.90
54168;DHT22;68429;50.958;3.592;2023-06-22T08:00:39;23.00;99.90
54168;DHT22;68429;50.958;3.592;2023-06-22T08:03:04;22.90;99.90
54168;DHT22;68429;50.958;3.592;2023-06-22T08:05:30;23.10;99.90
54168;DHT22;68429;50.958;3.592;2023-06-22T08:07:56;23.20;99.90
54168;DHT22;68429;50.958;3.592;2023-06-22T08:10:22;23.10;99.90
54168;DHT22;68429;50.958;3.592;2023-06-22T08:12:48;23.00;99.90
54168;DHT22;68429;50.958;3.592;2023-06-22T08:15:14;22.90;99.90
54168;DHT22;68429;50.958;3.592;2023-06-22T08:17:40;22.80;99.90
54168;DHT22;68429;50.958;3.592;2023-06-22T08:20:06;22.80;99.90
54168;DHT22;68429;50.958;3.592;2023-06-22T08:22:37;22.70;99.90
54168;DHT22;68429;50.958;3.592;2023-06-22T08:25:03;22.70;99.90
54168;DHT22;68429;50.958;3.592;2023-06-22T08:27:30;22.80;99.90
54168;DHT22;68429;50.958;3.592;2023-06-22T08:29:57;22.90;99.90
54168;DHT22;68429;50.958;3.592;2023-06-22T08:32:25;23.00;99.90
54168;DHT22;68429;50.958;3.592;2023-06-22T08:34:55;22.90;99.90
54168;DHT22;68429;50.958;3.592;2023-06-22T08:37:21;23.10;99.90
54168;DHT22;68429;50.958;3.592;2023-06-22T08:39:59;23.10;99.90
54168;DHT22;68429;50.958;3.592;2023-06-22T08:42:26;23.00;99.90
54168;DHT22;68429;50.958;3.592;2023-06-22T08:44:52;22.90;99.90
54168;DHT22;68429;50.958;3.592;2023-06-22T08:47:19;23.00;99.90
54168;DHT22;68429;50.958;3.592;2023-06-22T08:49:45;23.00;99.90
54168;DHT22;68429;50.958;3.592;2023-06-22T08:52:11;22.80;99.90
54168;DHT22;68429;50.958;3.592;2023-06-22T08:54:36;22.60;99.90
54168;DHT22;68429;50.958;3.592;2023-06-22T08:57:02;22.60;99.90
54168;DHT22;68429;50.958;3.592;2023-06-22T08:59:28;22.80;99.90
54168;DHT22;68429;50.958;3.592;2023-06-22T09:01:54;22.90;99.90
54168;DHT22;68429;50.958;3.592;2023-06-22T09:04:19;22.80;99.90
54168;DHT22;68429;50.958;3.592;2023-06-22T09:06:47;22.70;99.90
54168;DHT22;68429;50.958;3.592;2023-06-22T09:09:13;22.60;99.90
54168;DHT22;68429;50.958;3.592;2023-06-22T09:11:40;22.60;99.90
54168;DHT22;68429;50.958;3.592;2023-06-22T09:14:06;22.60;99.90
54168;DHT22;68429;50.958;3.592;2023-06-22T09:16:32;22.50;99.90
54168;DHT22;68429;50.958;3.592;2023-06-22T09:18:57;22.60;99.90
54168;DHT22;68429;50.958;3.592;2023-06-22T09:21:23;22.80;99.90
54168;DHT22;68429;50.958;3.592;2023-06-22T09:23:49;22.90;99.90
54168;DHT22;68429;50.958;3.592;2023-06-22T09:26:18;22.80;99.90
54168;DHT22;68429;50.958;3.592;2023-06-22T09:28:44;22.70;99.90
54168;DHT22;68429;50.958;3.592;2023-06-22T09:31:09;22.70;99.90
54168;DHT22;68429;50.958;3.592;2023-06-22T09:39:33;22.50;99.90
54168;DHT22;68429;50.958;3.592;2023-06-22T09:41:59;22.60;99.90
54168;DHT22;68429;50.958;3.592;2023-06-22T09:44:25;22.50;99.90
54168;DHT22;68429;50.958;3.592;2023-06-22T09:46:51;22.50;99.90
54168;DHT22;68429;50.958;3.592;2023-06-22T09:49:17;22.20;99.90
54168;DHT22;68429;50.958;3.592;2023-06-22T09:51:43;22.20;99.90
54168;DHT22;68429;50.958;3.592;2023-06-22T09:54:08;22.20;99.90
54168;DHT22;68429;50.958;3.592;2023-06-22T09:56:34;22.30;99.90
54168;DHT22;68429;50.958;3.592;2023-06-22T09:59:00;22.40;99.90
54168;DHT22;68429;50.958;3.592;2023-06-22T10:01:25;22.40;99.90
54168;DHT22;68429;50.958;3.592;2023-06-22T10:03:55;22.40;99.90
54168;DHT22;68429;50.958;3.592;2023-06-22T10:06:22;22.20;99.90
54168;DHT22;68429;50.958;3.592;2023-06-22T10:08:48;22.10;99.90
54168;DHT22;68429;50.958;3.592;2023-06-22T10:11:15;22.20;99.90
54168;DHT22;68429;50.958;3.592;2023-06-22T10:13:41;22.10;99.90
54168;DHT22;68429;50.958;3.592;2023-06-22T10:16:06;22.20;99.90
54168;DHT22;68429;50.958;3.592;2023-06-22T10:18:32;22.10;99.90
54168;DHT22;68429;50.958;3.592;2023-06-22T10:20:58;21.90;99.90
54168;DHT22;68429;50.958;3.592;2023-06-22T10:23:24;21.50;99.90
54168;DHT22;68429;50.958;3.592;2023-06-22T10:25:49;21.20;99.90
54168;DHT22;68429;50.958;3.592;2023-06-22T10:28:15;21.00;99.90
54168;DHT22;68429;50.958;3.592;2023-06-22T10:30:42;21.10;99.90
54168;DHT22;68429;50.958;3.592;2023-06-22T10:33:11;20.80;99.90
54168;DHT22;68429;50.958;3.592;2023-06-22T10:35:37;20.50;99.90
54168;DHT22;68429;50.958;3.592;2023-06-22T10:38:03;20.40;99.90
54168;DHT22;68429;50.958;3.592;2023-06-22T10:40:29;20.30;99.90
54168;DHT22;68429;50.958;3.592;2023-06-22T10:42:55;20.30;99.90
54168;DHT22;68429;50.958;3.592;2023-06-22T10:45:21;20.10;99.90
54168;DHT22;68429;50.958;3.592;2023-06-22T10:47:46;20.10;99.90
54168;DHT22;68429;50.958;3.592;2023-06-22T10:50:12;20.00;99.90
54168;DHT22;68429;50.958;3.592;2023-06-22T10:52:38;20.10;99.90
54168;DHT22;68429;50.958;3.592;2023-06-22T10:55:04;20.10;99.90
54168;DHT22;68429;50.958;3.592;2023-06-22T10:57:30;20.30;99.90
54168;DHT22;68429;50.958;3.592;2023-06-22T10:59:56;20.50;99.90
54168;DHT22;68429;50.958;3.592;2023-06-22T11:02:22;20.40;99.90
54168;DHT22;68429;50.958;3.592;2023-06-22T11:04:47;20.30;99.90
54168;DHT22;68429;50.958;3.592;2023-06-22T11:07:13;20.50;99.90
54168;DHT22;68429;50.958;3.592;2023-06-22T11:09:39;20.50;99.90
54168;DHT22;68429;50.958;3.592;2023-06-22T11:12:05;20.50;99.90
54168;DHT22;68429;50.958;3.592;2023-06-22T11:14:31;20.40;99.90
54168;DHT22;68429;50.958;3.592;2023-06-22T11:16:59;20.20;99.90
54168;DHT22;68429;50.958;3.592;2023-06-22T11:19:24;20.10;99.90
54168;DHT22;68429;50.958;3.592;2023-06-22T11:21:50;20.10;99.90
54168;DHT22;68429;50.958;3.592;2023-06-22T11:24:16;20.30;99.90
54168;DHT22;68429;50.958;3.592;2023-06-22T11:26:42;20.50;99.90
54168;DHT22;68429;50.958;3.592;2023-06-22T11:29:08;20.40;99.90
54168;DHT22;68429;50.958;3.592;2023-06-22T11:31:34;20.50;99.90
54168;DHT22;68429;50.958;3.592;2023-06-22T11:34:01;20.50;99.90
54168;DHT22;68429;50.958;3.592;2023-06-22T11:36:27;20.70;99.90
54168;DHT22;68429;50.958;3.592;2023-06-22T11:38:54;20.80;99.90
54168;DHT22;68429;50.958;3.592;2023-06-22T11:41:20;20.70;99.90
54168;DHT22;68429;50.958;3.592;2023-06-22T11:43:45;20.90;99.90
54168;DHT22;68429;50.958;3.592;2023-06-22T11:46:11;20.90;99.90
54168;DHT22;68429;50.958;3.592;2023-06-22T11:48:37;20.70;99.90
54168;DHT22;68429;50.958;3.592;2023-06-22T11:51:03;20.80;99.90
54168;DHT22;68429;50.958;3.592;2023-06-22T11:53:29;21.10;99.90
54168;DHT22;68429;50.958;3.592;2023-06-22T11:55:55;20.90;99.90
54168;DHT22;68429;50.958;3.592;2023-06-22T11:58:21;20.70;99.90
54168;DHT22;68429;50.958;3.592;2023-06-22T12:00:48;20.60;99.90
54168;DHT22;68429;50.958;3.592;2023-06-22T12:03:13;20.70;99.90
54168;DHT22;68429;50.958;3.592;2023-06-22T12:05:40;20.70;99.90
54168;DHT22;68429;50.958;3.592;2023-06-22T12:08:06;20.60;99.90
54168;DHT22;68429;50.958;3.592;2023-06-22T12:10:32;20.40;99.90
54168;DHT22;68429;50.958;3.592;2023-06-22T12:12:57;20.40;99.90
54168;DHT22;68429;50.958;3.592;2023-06-22T12:15:25;20.20;99.90
54168;DHT22;68429;50.958;3.592;2023-06-22T12:17:51;20.00;99.90
54168;DHT22;68429;50.958;3.592;2023-06-22T12:20:17;19.70;99.90
54168;DHT22;68429;50.958;3.592;2023-06-22T12:22:43;19.80;99.90
54168;DHT22;68429;50.958;3.592;2023-06-22T12:25:09;19.90;99.90
54168;DHT22;68429;50.958;3.592;2023-06-22T12:27:36;19.60;99.90
54168;DHT22;68429;50.958;3.592;2023-06-22T12:30:02;19.50;99.90
54168;DHT22;68429;50.958;3.592;2023-06-22T12:32:28;19.40;99.90
54168;DHT22;68429;50.958;3.592;2023-06-22T12:34:55;19.30;99.90
54168;DHT22;68429;50.958;3.592;2023-06-22T12:37:20;19.30;99.90
54168;DHT22;68429;50.958;3.592;2023-06-22T12:39:46;19.40;99.90
54168;DHT22;68429;50.958;3.592;2023-06-22T12:42:12;19.60;99.90
54168;DHT22;68429;50.958;3.592;2023-06-22T12:44:38;19.70;99.90
54168;DHT22;68429;50.958;3.592;2023-06-22T12:47:05;20.00;99.90
54168;DHT22;68429;50.958;3.592;2023-06-22T12:49:31;20.10;99.90
54168;DHT22;68429;50.958;3.592;2023-06-22T12:51:57;19.90;99.90
54168;DHT22;68429;50.958;3.592;2023-06-22T12:54:22;19.70;99.90
54168;DHT22;68429;50.958;3.592;2023-06-22T12:56:50;19.90;99.90
54168;DHT22;68429;50.958;3.592;2023-06-22T12:59:16;20.00;99.90
54168;DHT22;68429;50.958;3.592;2023-06-22T13:01:43;20.10;99.90
54168;DHT22;68429;50.958;3.592;2023-06-22T13:04:11;20.10;99.90
54168;DHT22;68429;50.958;3.592;2023-06-22T13:06:40;20.30;99.90
54168;DHT22;68429;50.958;3.592;2023-06-22T13:09:06;20.30;99.90
54168;DHT22;68429;50.958;3.592;2023-06-22T13:11:31;20.50;99.90
54168;DHT22;68429;50.958;3.592;2023-06-22T13:13:57;20.60;99.90
54168;DHT22;68429;50.958;3.592;2023-06-22T13:16:23;20.60;99.90
54168;DHT22;68429;50.958;3.592;2023-06-22T13:18:49;20.70;99.90
54168;DHT22;68429;50.958;3.592;2023-06-22T13:21:14;20.40;99.90
54168;DHT22;68429;50.958;3.592;2023-06-22T13:23:40;20.70;99.90
54168;DHT22;68429;50.958;3.592;2023-06-22T13:26:07;20.90;99.90
54168;DHT22;68429;50.958;3.592;2023-06-22T13:28:33;21.00;99.90
54168;DHT22;68429;50.958;3.592;2023-06-22T13:30:58;21.40;99.90
54168;DHT22;68429;50.958;3.592;2023-06-22T13:33:24;21.70;99.90
54168;DHT22;68429;50.958;3.592;2023-06-22T13:35:50;21.70;99.90
54168;DHT22;68429;50.958;3.592;2023-06-22T13:38:15;21.80;99.90
54168;DHT22;68429;50.958;3.592;2023-06-22T13:40:43;22.10;99.90
54168;DHT22;68429;50.958;3.592;2023-06-22T13:43:08;22.30;99.90
54168;DHT22;68429;50.958;3.592;2023-06-22T13:45:34;22.20;99.90
54168;DHT22;68429;50.958;3.592;2023-06-22T13:48:00;22.70;99.90
54168;DHT22;68429;50.958;3.592;2023-06-22T13:50:26;23.20;99.90
54168;DHT22;68429;50.958;3.592;2023-06-22T13:52:52;23.80;99.90
54168;DHT22;68429;50.958;3.592;2023-06-22T13:55:17;23.80;99.90
54168;DHT22;68429;50.958;3.592;2023-06-22T13:57:45;23.80;99.90
54168;DHT22;68429;50.958;3.592;2023-06-22T14:00:11;24.30;99.90
54168;DHT22;68429;50.958;3.592;2023-06-22T14:02:40;24.10;99.90
54168;DHT22;68429;50.958;3.592;2023-06-22T14:05:07;23.90;99.90
54168;DHT22;68429;50.958;3.592;2023-06-22T14:07:33;24.40;99.90
54168;DHT22;68429;50.958;3.592;2023-06-22T14:10:00;25.90;99.90
54168;DHT22;68429;50.958;3.592;2023-06-22T14:12:25;26.90;99.90
54168;DHT22;68429;50.958;3.592;2023-06-22T14:14:51;26.90;99.90
54168;DHT22;68429;50.958;3.592;2023-06-22T14:17:17;27.00;99.90
54168;DHT22;68429;50.958;3.592;2023-06-22T14:19:49;26.90;99.90
54168;DHT22;68429;50.958;3.592;2023-06-22T14:22:15;26.10;99.90
54168;DHT22;68429;50.958;3.592;2023-06-22T14:24:40;26.30;99.90
54168;DHT22;68429;50.958;3.592;2023-06-22T14:27:06;26.20;99.90
54168;DHT22;68429;50.958;3.592;2023-06-22T14:29:34;25.80;99.90
54168;DHT22;68429;50.958;3.592;2023-06-22T14:32:00;25.40;99.90
54168;DHT22;68429;50.958;3.592;2023-06-22T14:34:25;24.70;99.90
54168;DHT22;68429;50.958;3.592;2023-06-22T14:36:51;24.20;99.90
54168;DHT22;68429;50.958;3.592;2023-06-22T14:39:17;23.90;99.90
54168;DHT22;68429;50.958;3.592;2023-06-22T14:41:42;23.70;99.90
54168;DHT22;68429;50.958;3.592;2023-06-22T14:44:08;23.60;99.90
54168;DHT22;68429;50.958;3.592;2023-06-22T14:46:35;23.50;99.90
54168;DHT22;68429;50.958;3.592;2023-06-22T14:49:01;23.60;99.90
54168;DHT22;68429;50.958;3.592;2023-06-22T14:51:26;23.50;99.90
54168;DHT22;68429;50.958;3.592;2023-06-22T14:53:52;23.70;99.90
54168;DHT22;68429;50.958;3.592;2023-06-22T14:56:18;23.80;99.90
54168;DHT22;68429;50.958;3.592;2023-06-22T14:58:44;23.90;99.90
54168;DHT22;68429;50.958;3.592;2023-06-22T15:01:13;24.00;99.90
54168;DHT22;68429;50.958;3.592;2023-06-22T15:03:39;24.40;99.90
54168;DHT22;68429;50.958;3.592;2023-06-22T15:06:05;24.30;99.90
54168;DHT22;68429;50.958;3.592;2023-06-22T15:08:30;24.10;99.90
54168;DHT22;68429;50.958;3.592;2023-06-22T15:10:59;24.00;99.90
54168;DHT22;68429;50.958;3.592;2023-06-22T15:13:27;23.80;99.90
54168;DHT22;68429;50.958;3.592;2023-06-22T15:15:53;23.40;99.90
54168;DHT22;68429;50.958;3.592;2023-06-22T15:18:19;23.60;99.90
54168;DHT22;68429;50.958;3.592;2023-06-22T15:20:44;23.40;99.90
54168;DHT22;68429;50.958;3.592;2023-06-22T15:23:12;23.60;99.90
54168;DHT22;68429;50.958;3.592;2023-06-22T15:25:37;23.60;99.90
54168;DHT22;68429;50.958;3.592;2023-06-22T15:28:03;23.60;99.90
54168;DHT22;68429;50.958;3.592;2023-06-22T15:30:29;23.70;99.90
54168;DHT22;68429;50.958;3.592;2023-06-22T15:32:56;23.80;99.90
54168;DHT22;68429;50.958;3.592;2023-06-22T15:35:22;23.80;99.90